Time;durP1;ratioP1;P1;durP2;ratioP2;P2;SDS_P1;SDS_P2;PMS_P1;PMS_P2;Temp;Humidity;BMP_temperature;BMP_pressure;BME280_temperature;BME280_humidity;BME280_pressure;Samples;Min_cycle;Max_cycle;Signal;HPM_P1;HPM_P2
2022/12/04 00:01:25;;;;;;;38.95;16.70;;;;;;;;;;5075329;28;20115;-60
2022/12/04 00:03:59;;;;;;;43.08;17.85;;;;;;;;;;5070891;28;20477;-59
2022/12/04 00:06:25;;;;;;;40.15;17.02;;;;;;;;;;5081256;28;20678;-58
2022/12/04 00:08:51;;;;;;;46.10;17.73;;;;;;;;;;5077571;28;20111;-60
2022/12/04 00:11:20;;;;;;;45.22;18.17;;;;;;;;;;5055846;28;20041;-60
2022/12/04 00:13:46;;;;;;;43.65;17.52;;;;;;;;;;5071239;28;20029;-58
2022/12/04 00:16:15;;;;;;;41.78;17.23;;;;;;;;;;5069576;28;20035;-58
2022/12/04 00:18:40;;;;;;;39.75;17.08;;;;;;;;;;5071550;28;20465;-59
2022/12/04 00:21:09;;;;;;;44.80;17.38;;;;;;;;;;5071510;28;20028;-61
2022/12/04 00:23:36;;;;;;;43.63;18.15;;;;;;;;;;5071686;28;20354;-56
2022/12/04 00:26:13;;;;;;;42.65;17.33;;;;;;;;;;5070297;28;20135;-56
2022/12/04 00:28:39;;;;;;;40.22;16.80;;;;;;;;;;5071673;28;20029;-59
2022/12/04 00:31:10;;;;;;;42.17;17.15;;;;;;;;;;5050882;28;20036;-60
2022/12/04 00:33:35;;;;;;;;;;;;;;;;;;5068285;28;20033;-56
2022/12/04 00:36:04;;;;;;;38.30;14.82;;;;;;;;;;5069472;28;20280;-58
2022/12/04 00:38:30;;;;;;;42.03;16.55;;;;;;;;;;5069905;28;20056;-58
2022/12/04 00:40:56;;;;;;;40.60;16.70;;;;;;;;;;5067538;28;20086;-57
2022/12/04 00:43:22;;;;;;;42.65;17.13;;;;;;;;;;5068975;28;20353;-62
2022/12/04 00:45:48;;;;;;;42.65;17.23;;;;;;;;;;5070817;28;20024;-60
2022/12/04 00:48:13;;;;;;;39.33;16.05;;;;;;;;;;5051699;28;20129;-59
2022/12/04 00:50:39;;;;;;;42.33;17.52;;;;;;;;;;5068522;28;20111;-59
2022/12/04 00:53:05;;;;;;;40.08;16.50;;;;;;;;;;5069488;28;20131;-62
2022/12/04 00:55:30;;;;;;;41.65;17.23;;;;;;;;;;5067254;28;20090;-59
2022/12/04 00:57:55;;;;;;;41.20;16.77;;;;;;;;;;5070543;28;20190;-57
2022/12/04 01:00:21;;;;;;;40.72;17.23;;;;;;;;;;5067702;28;20074;-57
2022/12/04 01:02:46;;;;;;;44.10;16.92;;;;;;;;;;5073357;28;20029;-57
2022/12/04 01:05:12;;;;;;;40.58;16.95;;;;;;;;;;5073957;28;20032;-59
2022/12/04 01:07:37;;;;;;;41.67;16.73;;;;;;;;;;5076066;28;20393;-58
2022/12/04 01:10:05;;;;;;;44.08;16.85;;;;;;;;;;5057296;28;20130;-59
2022/12/04 01:12:31;;;;;;;41.05;16.70;;;;;;;;;;5074530;28;20435;-61
2022/12/04 01:14:56;;;;;;;42.20;17.00;;;;;;;;;;5074817;28;20150;-61
2022/12/04 01:17:22;;;;;;;43.15;18.05;;;;;;;;;;5056343;28;20389;-58
2022/12/04 01:19:47;;;;;;;44.22;17.65;;;;;;;;;;5058339;28;20410;-62
2022/12/04 01:22:13;;;;;;;39.53;16.77;;;;;;;;;;5075072;28;20465;-57
2022/12/04 01:24:38;;;;;;;44.33;16.85;;;;;;;;;;5059740;28;20024;-57
2022/12/04 01:27:04;;;;;;;41.00;16.45;;;;;;;;;;5068498;28;20040;-59
2022/12/04 01:29:29;;;;;;;42.10;16.38;;;;;;;;;;5056820;28;20036;-58
2022/12/04 01:31:55;;;;;;;44.95;16.70;;;;;;;;;;5074096;28;20036;-58
2022/12/04 01:34:20;;;;;;;40.38;16.50;;;;;;;;;;5076553;28;20032;-59
2022/12/04 01:36:45;;;;;;;40.72;16.95;;;;;;;;;;5056073;28;20373;-54
2022/12/04 01:39:11;;;;;;;43.65;16.25;;;;;;;;;;5075704;28;20113;-57
2022/12/04 01:41:36;;;;;;;43.80;17.25;;;;;;;;;;5075041;28;20036;-59
2022/12/04 01:44:09;;;;;;;44.35;17.58;;;;;;;;;;5076783;28;20040;-57
2022/12/04 01:46:34;;;;;;;39.53;16.67;;;;;;;;;;5074144;28;20059;-58
2022/12/04 01:49:01;;;;;;;40.22;15.68;;;;;;;;;;5057118;28;20032;-59
2022/12/04 01:51:35;;;;;;;42.42;17.25;;;;;;;;;;5072800;28;20189;-57
2022/12/04 01:54:09;;;;;;;41.65;17.00;;;;;;;;;;5075360;28;20420;-57
2022/12/04 01:56:49;;;;;;;38.70;16.48;;;;;;;;;;5075029;28;20052;-56
2022/12/04 01:59:18;;;;;;;42.43;17.27;;;;;;;;;;5073076;28;20087;-59
2022/12/04 02:02:03;;;;;;;40.72;16.75;;;;;;;;;;5075592;28;20042;-62
2022/12/04 02:04:30;;;;;;;41.95;15.88;;;;;;;;;;5068946;28;20090;-57
2022/12/04 02:06:55;;;;;;;41.05;16.40;;;;;;;;;;5059731;28;20111;-54
2022/12/04 02:09:22;;;;;;;39.42;16.63;;;;;;;;;;5072397;28;20166;-57
2022/12/04 02:12:02;;;;;;;42.42;16.30;;;;;;;;;;5076013;28;20492;-55
2022/12/04 02:15:03;;;;;;;40.70;17.45;;;;;;;;;;5070548;28;20618;-55
2022/12/04 02:17:39;;;;;;;37.45;16.55;;;;;;;;;;5040786;28;20052;-58
2022/12/04 02:20:30;;;;;;;39.40;17.13;;;;;;;;;;5071153;28;20040;-62
2022/12/04 02:23:32;;;;;;;36.30;16.02;;;;;;;;;;5071167;28;20046;-58
2022/12/04 02:25:58;;;;;;;37.65;15.82;;;;;;;;;;5071460;28;20087;-60
2022/12/04 02:28:29;;;;;;;43.38;16.08;;;;;;;;;;5054098;28;20693;-58
2022/12/04 02:30:58;;;;;;;42.38;17.15;;;;;;;;;;5071419;28;20036;-57
2022/12/04 02:33:28;;;;;;;42.65;16.52;;;;;;;;;;5071417;28;20171;-57
2022/12/04 02:36:09;;;;;;;45.57;17.20;;;;;;;;;;5072930;28;20071;-55
2022/12/04 02:38:39;;;;;;;40.05;15.73;;;;;;;;;;5064658;28;20071;-57
2022/12/04 02:41:16;;;;;;;42.55;16.83;;;;;;;;;;5069768;28;20345;-61
2022/12/04 02:43:51;;;;;;;43.13;17.00;;;;;;;;;;5072767;28;20051;-57
2022/12/04 02:46:35;;;;;;;41.53;16.67;;;;;;;;;;5070494;28;20032;-57
2022/12/04 02:49:05;;;;;;;40.42;16.15;;;;;;;;;;5072755;28;20442;-58
2022/12/04 02:51:35;;;;;;;40.97;16.10;;;;;;;;;;5070664;28;20025;-55
2022/12/04 02:54:09;;;;;;;41.45;16.65;;;;;;;;;;5071851;28;20291;-56
2022/12/04 02:56:39;;;;;;;39.28;16.30;;;;;;;;;;5072999;28;20121;-55
2022/12/04 02:59:19;;;;;;;41.20;15.38;;;;;;;;;;5069701;28;20068;-58
2022/12/04 03:01:49;;;;;;;45.47;16.42;;;;;;;;;;5072242;28;20039;-55
2022/12/04 03:04:20;;;;;;;42.78;15.90;;;;;;;;;;5069629;28;20128;-55
2022/12/04 03:06:51;;;;;;;39.97;16.23;;;;;;;;;;5071315;28;20063;-57
2022/12/04 03:09:23;;;;;;;38.38;16.17;;;;;;;;;;5051998;28;20089;-61
2022/12/04 03:11:52;;;;;;;39.58;16.33;;;;;;;;;;5055039;28;20041;-59
2022/12/04 03:14:24;;;;;;;37.42;15.98;;;;;;;;;;5070296;28;20039;-58
2022/12/04 03:16:53;;;;;;;37.28;15.10;;;;;;;;;;5070381;28;20029;-56
2022/12/04 03:19:23;;;;;;;37.47;15.73;;;;;;;;;;5068521;28;20037;-55
2022/12/04 03:21:55;;;;;;;35.30;15.93;;;;;;;;;;5053144;28;20033;-59
2022/12/04 03:24:32;;;;;;;40.33;16.25;;;;;;;;;;5071743;28;20055;-58
2022/12/04 03:27:24;;;;;;;35.00;15.13;;;;;;;;;;5070787;28;20124;-58
2022/12/04 03:30:06;;;;;;;35.65;14.88;;;;;;;;;;5072683;28;20036;-57
2022/12/04 03:32:55;;;;;;;36.17;15.40;;;;;;;;;;5068458;28;20086;-57
2022/12/04 03:35:54;;;;;;;38.88;15.40;;;;;;;;;;5070749;28;20025;-54
2022/12/04 03:38:31;;;;;;;39.13;15.73;;;;;;;;;;5063823;28;20040;-58
2022/12/04 03:41:12;;;;;;;37.47;15.57;;;;;;;;;;5070242;28;20028;-57
2022/12/04 03:43:51;;;;;;;33.70;13.60;;;;;;;;;;5070009;28;20036;-55
2022/12/04 03:46:22;;;;;;;38.40;15.25;;;;;;;;;;5069131;28;20037;-57
2022/12/04 03:49:09;;;;;;;36.30;15.48;;;;;;;;;;5068611;28;20071;-58
2022/12/04 03:51:40;;;;;;;38.35;15.35;;;;;;;;;;5071489;28;20047;-56
2022/12/04 03:54:34;;;;;;;37.60;15.45;;;;;;;;;;5054202;28;20052;-61
2022/12/04 03:57:05;;;;;;;35.38;14.70;;;;;;;;;;5071271;28;20044;-54
2022/12/04 03:59:40;;;;;;;38.53;15.20;;;;;;;;;;5066634;28;20052;-58
2022/12/04 04:02:12;;;;;;;33.42;14.57;;;;;;;;;;5067489;28;20783;-59
2022/12/04 04:04:39;;;;;;;34.85;15.07;;;;;;;;;;5070178;28;20129;-57
2022/12/04 04:07:14;;;;;;;33.95;14.60;;;;;;;;;;5069214;28;20120;-62
2022/12/04 04:09:44;;;;;;;33.97;15.63;;;;;;;;;;5070869;28;20036;-58
2022/12/04 04:12:14;;;;;;;36.38;14.45;;;;;;;;;;5068165;28;20024;-56
2022/12/04 04:26:06;;;;;;;38.03;14.00;;;;;;;;;;5069738;28;20175;-61
2022/12/04 04:28:35;;;;;;;32.92;14.20;;;;;;;;;;5065134;28;20061;-58
2022/12/04 04:31:18;;;;;;;33.22;14.70;;;;;;;;;;5070179;28;20476;-57
2022/12/04 04:34:08;;;;;;;32.03;14.50;;;;;;;;;;5067398;28;20040;-61
2022/12/04 04:36:52;;;;;;;30.65;14.48;;;;;;;;;;5069117;28;20040;-58
2022/12/04 04:39:30;;;;;;;31.38;13.27;;;;;;;;;;5067539;28;20032;-58
2022/12/04 04:42:14;;;;;;;29.95;12.38;;;;;;;;;;5070388;28;20101;-57
2022/12/04 04:44:52;;;;;;;28.52;12.98;;;;;;;;;;5069202;28;20036;-56
2022/12/04 04:47:28;;;;;;;26.95;12.65;;;;;;;;;;5053306;28;20040;-56
2022/12/04 04:49:55;;;;;;;29.33;12.32;;;;;;;;;;5068927;28;20488;-58
2022/12/04 04:52:23;;;;;;;30.17;13.27;;;;;;;;;;5051762;28;20044;-58
2022/12/04 04:54:48;;;;;;;30.95;13.85;;;;;;;;;;5068222;28;20143;-60
2022/12/04 04:57:25;;;;;;;30.48;13.20;;;;;;;;;;5067106;28;20449;-58
2022/12/04 04:59:50;;;;;;;24.67;11.90;;;;;;;;;;5070165;28;20025;-59
2022/12/04 05:02:15;;;;;;;27.83;12.75;;;;;;;;;;5068518;28;20031;-58
2022/12/04 05:04:41;;;;;;;29.17;12.18;;;;;;;;;;5048603;28;20025;-59
2022/12/04 05:07:06;;;;;;;27.95;12.32;;;;;;;;;;5069479;28;20107;-60
2022/12/04 05:09:32;;;;;;;28.30;12.82;;;;;;;;;;5068736;28;20033;-59
2022/12/04 05:11:57;;;;;;;28.75;13.02;;;;;;;;;;5071246;28;20094;-57
2022/12/04 05:14:22;;;;;;;29.00;12.70;;;;;;;;;;5052278;28;20103;-57
2022/12/04 05:16:48;;;;;;;28.98;12.13;;;;;;;;;;5071464;28;20457;-57
2022/12/04 05:21:57;;;;;;;27.67;12.57;;;;;;;;;;5060684;28;20118;-58
2022/12/04 05:24:23;;;;;;;29.38;12.52;;;;;;;;;;5069464;28;20428;-57
2022/12/04 05:26:48;;;;;;;27.88;12.63;;;;;;;;;;5071603;28;20042;-56
2022/12/04 05:29:13;;;;;;;27.52;12.52;;;;;;;;;;5067223;28;20028;-58
2022/12/04 05:31:39;;;;;;;30.05;13.02;;;;;;;;;;5070772;28;20059;-55
2022/12/04 05:34:04;;;;;;;27.27;12.43;;;;;;;;;;5069436;28;20457;-55
2022/12/04 05:36:29;;;;;;;32.03;13.23;;;;;;;;;;5069127;28;20028;-57
2022/12/04 05:38:55;;;;;;;30.23;13.20;;;;;;;;;;5069042;28;20101;-56
2022/12/04 05:41:20;;;;;;;29.25;13.95;;;;;;;;;;5050554;28;20485;-58
2022/12/04 05:43:45;;;;;;;29.40;12.77;;;;;;;;;;5070814;28;20024;-59
2022/12/04 05:46:11;;;;;;;27.45;12.60;;;;;;;;;;5067532;28;20036;-59
2022/12/04 05:48:36;;;;;;;32.00;14.05;;;;;;;;;;5069799;28;20028;-58
2022/12/04 05:51:06;;;;;;;28.90;13.10;;;;;;;;;;5055774;28;20052;-54
2022/12/04 05:53:32;;;;;;;30.85;14.38;;;;;;;;;;5073400;28;20033;-58
2022/12/04 05:55:59;;;;;;;30.35;13.75;;;;;;;;;;5073179;28;20049;-55
2022/12/04 05:58:26;;;;;;;30.48;13.30;;;;;;;;;;5070557;28;20814;-58
2022/12/04 06:00:52;;;;;;;32.15;13.93;;;;;;;;;;5073674;28;20028;-57
2022/12/04 06:03:17;;;;;;;31.40;13.93;;;;;;;;;;5071300;28;20033;-57
2022/12/04 06:05:43;;;;;;;29.65;13.35;;;;;;;;;;5072433;28;20025;-56
2022/12/04 06:08:08;;;;;;;32.08;13.88;;;;;;;;;;5034817;28;20396;-62
2022/12/04 06:10:33;;;;;;;33.10;14.35;;;;;;;;;;5073967;28;20036;-58
2022/12/04 06:12:59;;;;;;;34.97;14.70;;;;;;;;;;5070741;28;20139;-57
2022/12/04 06:15:24;;;;;;;30.58;13.52;;;;;;;;;;5070836;28;20512;-60
2022/12/04 06:17:50;;;;;;;28.38;12.77;;;;;;;;;;5073214;28;20112;-59
2022/12/04 06:20:15;;;;;;;26.92;11.88;;;;;;;;;;5071521;28;20082;-58
2022/12/04 06:22:40;;;;;;;25.58;11.98;;;;;;;;;;5073156;28;20389;-59
2022/12/04 06:25:07;;;;;;;26.27;12.40;;;;;;;;;;5076731;28;20044;-61
2022/12/04 06:27:32;;;;;;;27.65;12.45;;;;;;;;;;5072259;28;20036;-57
2022/12/04 06:29:58;;;;;;;26.60;12.82;;;;;;;;;;5072801;28;20045;-60
2022/12/04 06:32:23;;;;;;;29.42;12.38;;;;;;;;;;5073111;28;20036;-59
2022/12/04 06:34:51;;;;;;;28.98;12.63;;;;;;;;;;5072650;28;20162;-59
2022/12/04 06:37:16;;;;;;;26.65;12.30;;;;;;;;;;5072828;28;20033;-59
2022/12/04 06:39:42;;;;;;;28.08;12.38;;;;;;;;;;5072771;28;20028;-57
2022/12/04 06:42:07;;;;;;;24.38;12.02;;;;;;;;;;5075702;28;20472;-61
2022/12/04 06:44:32;;;;;;;27.15;12.18;;;;;;;;;;5071711;28;20040;-58
2022/12/04 06:46:58;;;;;;;26.98;12.20;;;;;;;;;;5055493;28;20031;-58
2022/12/04 06:49:24;;;;;;;23.15;11.40;;;;;;;;;;5071686;28;20045;-55
2022/12/04 06:51:50;;;;;;;24.63;11.23;;;;;;;;;;5073105;28;20107;-57
2022/12/04 06:54:15;;;;;;;23.33;11.07;;;;;;;;;;5053879;28;20430;-58
2022/12/04 06:56:41;;;;;;;24.90;11.60;;;;;;;;;;5073099;28;20045;-58
2022/12/04 06:59:06;;;;;;;26.92;11.77;;;;;;;;;;5071612;28;20481;-61
2022/12/04 07:01:33;;;;;;;24.88;11.15;;;;;;;;;;5071921;28;20068;-58
2022/12/04 07:04:02;;;;;;;26.58;11.80;;;;;;;;;;5072476;28;20036;-58
2022/12/04 07:06:36;;;;;;;24.83;11.10;;;;;;;;;;5072320;28;20058;-57
2022/12/04 07:09:05;;;;;;;22.17;10.95;;;;;;;;;;5072468;28;20031;-57
2022/12/04 07:11:31;;;;;;;25.73;11.65;;;;;;;;;;5085384;28;20039;-58
2022/12/04 07:13:56;;;;;;;23.30;10.82;;;;;;;;;;5075272;28;20032;-58
2022/12/04 07:16:23;;;;;;;22.38;10.75;;;;;;;;;;5071388;28;20033;-60
2022/12/04 07:18:49;;;;;;;23.25;11.40;;;;;;;;;;5050919;28;20112;-60
2022/12/04 07:21:17;;;;;;;25.05;11.52;;;;;;;;;;5057884;28;20220;-60
2022/12/04 07:23:44;;;;;;;24.77;11.50;;;;;;;;;;5073219;28;20032;-59
2022/12/04 07:26:12;;;;;;;21.83;11.07;;;;;;;;;;5070983;28;20035;-60
2022/12/04 07:28:38;;;;;;;21.23;10.45;;;;;;;;;;5070601;28;20075;-58
2022/12/04 07:31:09;;;;;;;23.75;10.98;;;;;;;;;;5059930;28;20392;-58
2022/12/04 07:33:34;;;;;;;21.25;10.88;;;;;;;;;;5088020;28;20032;-59
2022/12/04 07:36:03;;;;;;;22.38;11.48;;;;;;;;;;5085615;28;20041;-59
2022/12/04 07:38:29;;;;;;;22.50;10.18;;;;;;;;;;5071500;28;20408;-58
2022/12/04 07:40:56;;;;;;;21.98;10.88;;;;;;;;;;5071454;28;20032;-60
2022/12/04 07:43:22;;;;;;;22.48;9.98;;;;;;;;;;5070487;28;20032;-60
2022/12/04 07:45:48;;;;;;;21.35;11.00;;;;;;;;;;5072371;28;20035;-60
2022/12/04 07:48:13;;;;;;;21.77;10.27;;;;;;;;;;5070836;28;20028;-60
2022/12/04 07:50:38;;;;;;;22.73;11.75;;;;;;;;;;5072526;28;20035;-60
2022/12/04 07:53:04;;;;;;;21.70;10.52;;;;;;;;;;5070888;28;20369;-61
2022/12/04 07:55:29;;;;;;;20.65;10.18;;;;;;;;;;5070875;28;20135;-62
2022/12/04 07:57:55;;;;;;;23.13;10.93;;;;;;;;;;5071160;28;20079;-61
2022/12/04 08:00:20;;;;;;;24.20;11.32;;;;;;;;;;5070890;28;20039;-61
2022/12/04 08:02:45;;;;;;;23.52;11.25;;;;;;;;;;5071656;28;20540;-61
2022/12/04 08:05:11;;;;;;;24.67;11.10;;;;;;;;;;5071106;28;20032;-60
2022/12/04 08:07:36;;;;;;;23.65;10.98;;;;;;;;;;5070468;28;20465;-58
2022/12/04 08:10:02;;;;;;;20.73;10.23;;;;;;;;;;5071577;28;20085;-62
2022/12/04 08:12:31;;;;;;;20.48;10.07;;;;;;;;;;5068297;28;20205;-61
2022/12/04 08:14:57;;;;;;;21.75;10.48;;;;;;;;;;5071941;28;20036;-61
2022/12/04 08:17:22;;;;;;;22.17;11.13;;;;;;;;;;5069809;28;20041;-62
2022/12/04 08:19:47;;;;;;;20.70;10.40;;;;;;;;;;5071559;28;20393;-61
2022/12/04 08:22:13;;;;;;;21.55;10.55;;;;;;;;;;5068075;28;20033;-62
2022/12/04 08:24:38;;;;;;;22.90;10.82;;;;;;;;;;5052930;28;20025;-61
2022/12/04 08:27:03;;;;;;;19.63;10.40;;;;;;;;;;5071386;28;20132;-61
2022/12/04 08:29:29;;;;;;;22.00;10.95;;;;;;;;;;5068465;28;20036;-61
2022/12/04 08:31:54;;;;;;;24.15;11.00;;;;;;;;;;5070340;28;20465;-60
2022/12/04 08:34:20;;;;;;;21.42;11.70;;;;;;;;;;5070778;28;20025;-60
2022/12/04 08:36:45;;;;;;;25.58;12.45;;;;;;;;;;5052331;28;20443;-60
2022/12/04 08:39:11;;;;;;;20.98;10.52;;;;;;;;;;5068807;28;20381;-59
2022/12/04 08:41:37;;;;;;;22.75;10.85;;;;;;;;;;5069562;28;20029;-60
2022/12/04 08:44:02;;;;;;;21.67;10.80;;;;;;;;;;5071184;28;20081;-55
2022/12/04 08:46:28;;;;;;;22.25;11.70;;;;;;;;;;5067964;28;20112;-58
2022/12/04 08:48:54;;;;;;;21.75;11.00;;;;;;;;;;5068030;28;20056;-60
2022/12/04 08:51:23;;;;;;;23.02;11.80;;;;;;;;;;5066614;28;20111;-62
2022/12/04 08:53:55;;;;;;;22.05;10.82;;;;;;;;;;5070550;28;20029;-61
2022/12/04 08:56:21;;;;;;;22.38;11.52;;;;;;;;;;5069956;28;20078;-61
2022/12/04 08:58:47;;;;;;;21.15;11.05;;;;;;;;;;5070008;28;20025;-62
2022/12/04 09:01:13;;;;;;;23.25;11.55;;;;;;;;;;5067134;28;20092;-62
2022/12/04 09:03:40;;;;;;;23.75;11.98;;;;;;;;;;5071306;28;20414;-61
2022/12/04 09:06:07;;;;;;;22.50;11.55;;;;;;;;;;5068063;28;20568;-65
2022/12/04 09:08:33;;;;;;;23.25;12.20;;;;;;;;;;5052643;28;20089;-56
2022/12/04 09:11:06;;;;;;;24.30;11.48;;;;;;;;;;5070171;28;20132;-56
2022/12/04 09:13:33;;;;;;;24.02;11.48;;;;;;;;;;5069258;28;20098;-58
2022/12/04 09:15:58;;;;;;;25.95;12.40;;;;;;;;;;5068250;28;20040;-58
2022/12/04 09:18:24;;;;;;;23.98;12.77;;;;;;;;;;5068693;28;20040;-59
2022/12/04 09:20:57;;;;;;;22.90;11.52;;;;;;;;;;5050672;28;20021;-61
2022/12/04 09:23:23;;;;;;;23.65;12.35;;;;;;;;;;5070538;28;20041;-58
2022/12/04 09:25:48;;;;;;;24.98;12.95;;;;;;;;;;5074410;28;20025;-61
2022/12/04 09:28:14;;;;;;;33.67;14.18;;;;;;;;;;5075514;28;20062;-56
2022/12/04 09:30:39;;;;;;;25.85;13.43;;;;;;;;;;5074975;28;20072;-55
2022/12/04 09:33:04;;;;;;;27.95;13.13;;;;;;;;;;5072855;28;20036;-61
2022/12/04 09:35:30;;;;;;;24.85;12.30;;;;;;;;;;5072271;28;20433;-57
2022/12/04 09:37:55;;;;;;;24.48;12.48;;;;;;;;;;5075075;28;20020;-57
2022/12/04 09:40:39;;;;;;;25.30;11.55;;;;;;;;;;5055213;28;20035;-57
2022/12/04 09:43:30;;;;;;;25.67;12.32;;;;;;;;;;5074068;28;20039;-61
2022/12/04 09:46:05;;;;;;;20.65;11.00;;;;;;;;;;5071459;28;20037;-57
2022/12/04 09:48:38;;;;;;;23.63;11.85;;;;;;;;;;5070642;28;20163;-58
2022/12/04 09:51:05;;;;;;;21.98;11.43;;;;;;;;;;5067861;28;20032;-58
2022/12/04 09:53:50;;;;;;;22.80;11.15;;;;;;;;;;5053794;28;20032;-60
2022/12/04 09:56:21;;;;;;;21.33;11.43;;;;;;;;;;5053758;28;20052;-57
2022/12/04 09:58:51;;;;;;;20.88;10.65;;;;;;;;;;5053698;28;20029;-58
2022/12/04 10:02:06;;;;;;;23.70;12.02;;;;;;;;;;5073554;28;20032;-56
2022/12/04 10:04:31;;;;;;;23.95;12.70;;;;;;;;;;5034401;28;20097;-58
2022/12/04 10:07:21;;;;;;;22.95;11.95;;;;;;;;;;5064260;28;20020;-60
2022/12/04 10:10:21;;;;;;;24.40;11.60;;;;;;;;;;5062932;28;20059;-56
2022/12/04 10:13:19;;;;;;;23.40;11.77;;;;;;;;;;5053247;28;20048;-56
2022/12/04 10:16:22;;;;;;;20.45;10.25;;;;;;;;;;5050927;28;20413;-60
2022/12/04 10:19:16;;;;;;;20.70;10.80;;;;;;;;;;5069485;28;20109;-61
2022/12/04 10:21:55;;;;;;;22.67;11.43;;;;;;;;;;5052091;28;20041;-61
2022/12/04 10:24:25;;;;;;;21.58;11.23;;;;;;;;;;5073203;28;20028;-61
2022/12/04 10:26:53;;;;;;;23.52;12.13;;;;;;;;;;5072863;28;20473;-61
2022/12/04 10:29:31;;;;;;;23.42;11.32;;;;;;;;;;5070515;28;20120;-62
2022/12/04 10:32:22;;;;;;;22.58;11.07;;;;;;;;;;5073757;28;20035;-61
2022/12/04 10:34:51;;;;;;;22.08;11.48;;;;;;;;;;5072619;28;20047;-61
2022/12/04 10:37:16;;;;;;;20.58;11.18;;;;;;;;;;5074983;28;20069;-61
2022/12/04 10:39:42;;;;;;;27.20;12.38;;;;;;;;;;5060083;28;20534;-60
2022/12/04 10:42:37;;;;;;;26.30;12.63;;;;;;;;;;5072808;28;20044;-62
2022/12/04 10:45:04;;;;;;;24.15;12.70;;;;;;;;;;5073224;28;20032;-60
2022/12/04 10:47:30;;;;;;;23.58;12.52;;;;;;;;;;5071720;28;20059;-63
2022/12/04 10:49:59;;;;;;;26.83;12.10;;;;;;;;;;5078234;28;20114;-62
2022/12/04 10:52:25;;;;;;;24.63;12.40;;;;;;;;;;5062569;28;20436;-61
2022/12/04 10:54:55;;;;;;;22.45;11.30;;;;;;;;;;5072531;28;20049;-61
2022/12/04 10:57:20;;;;;;;21.27;11.38;;;;;;;;;;5071250;28;20040;-62
2022/12/04 10:59:52;;;;;;;22.02;11.18;;;;;;;;;;5071492;28;20033;-61
2022/12/04 11:02:31;;;;;;;21.35;11.18;;;;;;;;;;5073034;28;20032;-62
2022/12/04 11:04:59;;;;;;;23.20;12.00;;;;;;;;;;5078938;28;20483;-61
2022/12/04 11:07:28;;;;;;;22.25;11.70;;;;;;;;;;5072308;28;20032;-61
2022/12/04 11:09:59;;;;;;;23.15;12.00;;;;;;;;;;5068678;28;20397;-61
2022/12/04 11:12:24;;;;;;;;;;;;;;;;;;5070555;28;20033;-60
2022/12/04 11:15:19;;;;;;;22.55;11.13;;;;;;;;;;5071858;28;19919;-59
2022/12/04 11:17:45;;;;;;;22.60;10.75;;;;;;;;;;5069378;28;20370;-60
2022/12/04 11:20:23;;;;;;;22.73;11.55;;;;;;;;;;5072284;28;20035;-61
2022/12/04 11:22:55;;;;;;;22.55;10.82;;;;;;;;;;5072442;28;20032;-60
2022/12/04 11:25:22;;;;;;;19.90;11.20;;;;;;;;;;5072102;28;20047;-59
2022/12/04 11:27:54;;;;;;;21.67;10.52;;;;;;;;;;5070513;28;20032;-59
2022/12/04 11:30:25;;;;;;;19.92;10.60;;;;;;;;;;5050551;28;20103;-60
2022/12/04 11:32:51;;;;;;;22.27;11.05;;;;;;;;;;5068205;28;20037;-61
2022/12/04 11:35:24;;;;;;;20.63;10.35;;;;;;;;;;5070255;28;20473;-60
2022/12/04 11:38:01;;;;;;;22.83;10.88;;;;;;;;;;5072645;28;20032;-61
2022/12/04 11:40:27;;;;;;;20.23;10.73;;;;;;;;;;5068768;28;20465;-61
2022/12/04 11:43:16;;;;;;;19.83;10.13;;;;;;;;;;5071125;28;20028;-61
2022/12/04 11:45:56;;;;;;;19.48;10.43;;;;;;;;;;5059169;28;20527;-60
2022/12/04 11:48:22;;;;;;;19.50;10.85;;;;;;;;;;5069667;28;20103;-55
2022/12/04 11:51:09;;;;;;;21.63;10.68;;;;;;;;;;5071016;28;20108;-61
2022/12/04 11:53:34;;;;;;;21.27;10.05;;;;;;;;;;5070383;28;20036;-59
2022/12/04 11:56:21;;;;;;;22.38;11.65;;;;;;;;;;5071364;28;20051;-60
2022/12/04 11:59:08;;;;;;;22.88;11.00;;;;;;;;;;5066989;28;20040;-60
2022/12/04 12:01:39;;;;;;;21.38;10.70;;;;;;;;;;5069632;28;20038;-60
2022/12/04 12:04:23;;;;;;;18.35;10.18;;;;;;;;;;5072083;28;20063;-60
2022/12/04 12:07:16;;;;;;;22.50;10.43;;;;;;;;;;5060078;28;20029;-60
2022/12/04 12:10:01;;;;;;;20.05;10.82;;;;;;;;;;5053047;28;20430;-61
2022/12/04 12:12:48;;;;;;;21.88;10.90;;;;;;;;;;5069653;28;20025;-60
2022/12/04 12:15:23;;;;;;;20.30;10.38;;;;;;;;;;5071341;28;20044;-61
2022/12/04 12:18:09;;;;;;;22.85;11.07;;;;;;;;;;5070647;28;20381;-60
2022/12/04 12:21:08;;;;;;;20.98;11.15;;;;;;;;;;5053130;28;20040;-60
2022/12/04 12:23:47;;;;;;;22.33;11.70;;;;;;;;;;5059167;28;20262;-61
2022/12/04 12:26:15;;;;;;;24.20;11.95;;;;;;;;;;5068431;28;20039;-62
2022/12/04 12:28:50;;;;;;;26.08;11.95;;;;;;;;;;5069013;28;20091;-60
2022/12/04 12:31:44;;;;;;;23.15;11.32;;;;;;;;;;5070111;28;20056;-62
2022/12/04 12:34:29;;;;;;;21.92;11.38;;;;;;;;;;5069935;28;20067;-61
2022/12/04 12:36:56;;;;;;;21.55;11.25;;;;;;;;;;5070748;28;20036;-61
2022/12/04 12:39:49;;;;;;;20.23;11.07;;;;;;;;;;5070044;28;20032;-61
2022/12/04 12:42:22;;;;;;;20.90;10.95;;;;;;;;;;5022355;28;20036;-61
2022/12/04 12:45:16;;;;;;;20.75;11.18;;;;;;;;;;5052883;28;20108;-60
2022/12/04 12:47:48;;;;;;;19.58;10.13;;;;;;;;;;5042840;28;20045;-62
2022/12/04 12:50:18;;;;;;;21.35;11.18;;;;;;;;;;5066218;28;20036;-62
2022/12/04 12:52:50;;;;;;;21.65;11.07;;;;;;;;;;5071549;28;20036;-60
2022/12/04 12:55:25;;;;;;;18.70;9.98;;;;;;;;;;5051502;28;20057;-61
2022/12/04 12:58:19;;;;;;;20.77;10.75;;;;;;;;;;5070643;28;20380;-61
2022/12/04 13:01:00;;;;;;;18.40;10.45;;;;;;;;;;5061530;28;20040;-60
2022/12/04 13:03:40;;;;;;;19.90;10.70;;;;;;;;;;5069211;28;20032;-61
2022/12/04 13:06:13;;;;;;;18.85;9.98;;;;;;;;;;5058963;28;20119;-60
2022/12/04 13:08:53;;;;;;;18.48;9.57;;;;;;;;;;5051030;28;20461;-61
2022/12/04 13:11:22;;;;;;;19.30;10.23;;;;;;;;;;5048798;28;20339;-61
2022/12/04 13:13:57;;;;;;;17.17;9.13;;;;;;;;;;5034854;28;20280;-65
2022/12/04 13:16:41;;;;;;;18.63;10.00;;;;;;;;;;5065117;28;20059;-62
2022/12/04 13:19:16;;;;;;;20.50;9.88;;;;;;;;;;5071915;28;20074;-62
2022/12/04 13:21:48;;;;;;;19.50;9.70;;;;;;;;;;5071534;28;20035;-62
2022/12/04 13:24:19;;;;;;;18.38;9.93;;;;;;;;;;5067854;28;20020;-63
2022/12/04 13:26:52;;;;;;;18.83;10.75;;;;;;;;;;5070167;28;20032;-60
2022/12/04 13:29:33;;;;;;;19.55;10.77;;;;;;;;;;5052565;28;20036;-62
2022/12/04 13:31:58;;;;;;;;;;;;;;;;;;5070569;28;20219;-61
2022/12/04 13:34:36;;;;;;;18.90;9.98;;;;;;;;;;5052727;28;19936;-62
2022/12/04 13:37:19;;;;;;;19.98;10.07;;;;;;;;;;5071504;28;20025;-62
2022/12/04 13:40:18;;;;;;;20.75;10.85;;;;;;;;;;5071336;28;20488;-61
2022/12/04 13:42:44;;;;;;;20.20;11.13;;;;;;;;;;5061206;28;20512;-63
2022/12/04 13:45:22;;;;;;;21.27;11.10;;;;;;;;;;5071153;28;20056;-61
2022/12/04 13:47:58;;;;;;;20.05;11.02;;;;;;;;;;5070413;28;20469;-61
2022/12/04 13:50:33;;;;;;;20.13;11.02;;;;;;;;;;5052661;28;20060;-61
2022/12/04 13:53:00;;;;;;;19.30;11.02;;;;;;;;;;5069002;28;20109;-62
2022/12/04 13:55:30;;;;;;;22.60;11.57;;;;;;;;;;5068377;28;20469;-62
2022/12/04 13:58:23;;;;;;;18.70;10.90;;;;;;;;;;5070896;28;20043;-63
2022/12/04 14:01:03;;;;;;;17.65;10.10;;;;;;;;;;5069082;28;20040;-62
2022/12/04 14:03:47;;;;;;;19.92;11.20;;;;;;;;;;5069856;28;20029;-62
2022/12/04 14:06:40;;;;;;;23.52;11.23;;;;;;;;;;5069309;28;20032;-63
2022/12/04 14:09:23;;;;;;;20.45;10.82;;;;;;;;;;5068198;28;20044;-62
2022/12/04 14:11:53;;;;;;;24.42;11.63;;;;;;;;;;5073112;28;20036;-63
2022/12/04 14:14:52;;;;;;;20.98;11.15;;;;;;;;;;5073447;28;20025;-64
2022/12/04 14:17:24;;;;;;;19.48;10.45;;;;;;;;;;5072407;28;20120;-63
2022/12/04 14:20:01;;;;;;;20.27;11.18;;;;;;;;;;5055910;28;20496;-62
2022/12/04 14:22:33;;;;;;;19.35;10.65;;;;;;;;;;5070983;28;20032;-62
2022/12/04 14:25:26;;;;;;;20.30;10.23;;;;;;;;;;5073347;28;20060;-62
2022/12/04 14:27:52;;;;;;;20.33;10.93;;;;;;;;;;5061532;28;20040;-62
2022/12/04 14:30:22;;;;;;;21.33;10.98;;;;;;;;;;5073266;28;20047;-65
2022/12/04 14:33:00;;;;;;;22.88;11.55;;;;;;;;;;5072129;28;20033;-61
2022/12/04 14:35:27;;;;;;;20.77;10.88;;;;;;;;;;5073026;28;20047;-62
2022/12/04 14:38:02;;;;;;;23.83;11.48;;;;;;;;;;5071842;28;20032;-63
2022/12/04 14:40:43;;;;;;;25.17;12.15;;;;;;;;;;5072500;28;20032;-62
2022/12/04 14:43:18;;;;;;;23.52;12.40;;;;;;;;;;5073307;28;20033;-66
2022/12/04 14:46:11;;;;;;;25.48;12.70;;;;;;;;;;5072980;28;20090;-62
2022/12/04 14:48:51;;;;;;;25.52;13.30;;;;;;;;;;5072298;28;20054;-62
2022/12/04 14:51:34;;;;;;;29.08;13.35;;;;;;;;;;5072069;28;20039;-64
2022/12/04 14:54:21;;;;;;;30.30;13.85;;;;;;;;;;5055434;28;20380;-62
2022/12/04 14:57:21;;;;;;;27.83;13.82;;;;;;;;;;5072025;28;20051;-61
2022/12/04 14:59:49;;;;;;;28.30;13.18;;;;;;;;;;5071977;28;20091;-64
2022/12/04 15:02:21;;;;;;;24.92;12.38;;;;;;;;;;5071796;28;20036;-60